createdAt,value
2023-02-24T00:02:15.055Z,99.90
2023-02-24T00:04:45.285Z,99.90
2023-02-24T00:07:12.974Z,99.90
2023-02-24T00:09:40.582Z,99.90
2023-02-24T00:12:11.202Z,99.90
2023-02-24T00:14:41.161Z,99.90
2023-02-24T00:17:10.272Z,99.90
2023-02-24T00:19:38.534Z,99.90
2023-02-24T00:22:07.613Z,99.90
2023-02-24T00:24:36.122Z,99.90
2023-02-24T00:27:07.797Z,99.90
2023-02-24T00:29:37.577Z,99.90
2023-02-24T00:32:08.007Z,99.90
2023-02-24T00:34:38.766Z,99.90
2023-02-24T00:37:07.112Z,99.90
2023-02-24T00:39:36.106Z,99.90
2023-02-24T00:42:06.044Z,99.90
2023-02-24T00:44:36.308Z,99.90
2023-02-24T00:47:05.422Z,99.90
2023-02-24T00:49:35.726Z,99.90
2023-02-24T00:52:04.711Z,99.90
2023-02-24T00:54:38.227Z,99.90
2023-02-24T00:57:10.905Z,99.90
2023-02-24T00:59:39.307Z,99.90
2023-02-24T01:02:07.768Z,99.90
2023-02-24T01:04:37.686Z,99.90
2023-02-24T01:07:10.551Z,99.90
2023-02-24T01:09:41.669Z,99.90
2023-02-24T01:12:38.036Z,99.90
2023-02-24T01:15:11.331Z,99.90
2023-02-24T01:17:40.515Z,99.90
2023-02-24T01:20:16.986Z,99.90
2023-02-24T01:22:50.297Z,99.90
2023-02-24T01:25:20.291Z,99.90
2023-02-24T01:27:48.545Z,99.90
2023-02-24T01:30:18.097Z,99.90
2023-02-24T01:32:47.310Z,99.90
2023-02-24T01:35:15.880Z,99.90
2023-02-24T01:37:43.586Z,99.90
2023-02-24T01:40:20.616Z,99.90
2023-02-24T01:42:49.314Z,99.90
2023-02-24T01:45:21.758Z,99.90
2023-02-24T01:47:50.567Z,99.90
2023-02-24T01:50:22.196Z,99.90
2023-02-24T01:52:52.677Z,99.90
2023-02-24T01:55:26.763Z,99.90
2023-02-24T01:57:56.113Z,99.90
2023-02-24T02:00:32.630Z,99.90
2023-02-24T02:03:08.125Z,99.90
2023-02-24T02:05:38.076Z,99.90
2023-02-24T02:08:05.855Z,99.90
2023-02-24T02:10:34.063Z,99.90
2023-02-24T02:13:04.468Z,99.90
2023-02-24T02:15:36.043Z,99.90
2023-02-24T02:18:14.134Z,99.90
2023-02-24T02:21:15.326Z,99.90
2023-02-24T02:23:55.084Z,99.90
2023-02-24T02:26:50.019Z,99.90
2023-02-24T02:29:39.295Z,99.90
2023-02-24T02:32:25.530Z,99.90
2023-02-24T02:34:59.056Z,99.90
2023-02-24T02:37:33.141Z,99.90
2023-02-24T02:40:00.719Z,99.90
2023-02-24T02:42:38.877Z,99.90
2023-02-24T02:45:13.341Z,99.90
2023-02-24T02:48:01.172Z,99.90
2023-02-24T02:50:35.862Z,99.90
2023-02-24T02:53:19.218Z,99.90
2023-02-24T02:56:02.596Z,99.90
2023-02-24T02:58:36.102Z,99.90
2023-02-24T03:01:07.195Z,99.90
2023-02-24T03:03:46.380Z,99.90
2023-02-24T03:06:21.922Z,99.90
2023-02-24T03:09:03.252Z,99.90
2023-02-24T03:11:32.505Z,99.90
2023-02-24T03:14:02.717Z,99.90
2023-02-24T03:16:32.723Z,99.90
2023-02-24T03:19:04.595Z,99.90
2023-02-24T03:21:40.894Z,99.90
2023-02-24T03:24:09.433Z,99.90
2023-02-24T03:26:59.802Z,99.90
2023-02-24T03:30:09.624Z,99.90
2023-02-24T03:32:59.373Z,99.90
2023-02-24T03:35:39.124Z,99.90
2023-02-24T03:38:10.047Z,99.90
2023-02-24T03:40:43.406Z,99.90
2023-02-24T03:43:19.489Z,99.90
2023-02-24T03:45:47.631Z,99.90
2023-02-24T03:48:16.303Z,99.90
2023-02-24T03:50:44.594Z,99.90
2023-02-24T03:53:12.124Z,99.90
2023-02-24T03:55:59.583Z,99.90
2023-02-24T03:58:38.564Z,99.90
2023-02-24T04:01:28.861Z,99.90
2023-02-24T04:04:00.421Z,99.90
2023-02-24T04:06:33.995Z,99.90
2023-02-24T04:09:10.782Z,99.90
2023-02-24T04:11:49.090Z,99.90
2023-02-24T04:14:19.730Z,99.90
2023-02-24T04:17:01.079Z,99.90
2023-02-24T04:19:38.301Z,99.90
2023-02-24T04:22:10.284Z,99.90
2023-02-24T04:24:40.655Z,99.90
2023-02-24T04:27:11.594Z,99.90
2023-02-24T04:29:47.181Z,99.90
2023-02-24T04:32:20.283Z,99.90
2023-02-24T04:34:48.606Z,99.90
2023-02-24T04:37:17.283Z,99.90
2023-02-24T04:39:46.033Z,99.90
2023-02-24T04:42:14.830Z,99.90
2023-02-24T04:44:42.836Z,99.90
2023-02-24T04:47:13.278Z,99.90
2023-02-24T04:49:44.516Z,99.90
2023-02-24T04:52:12.437Z,99.90
2023-02-24T04:54:40.020Z,99.90
2023-02-24T04:57:07.869Z,99.90
2023-02-24T04:59:40.665Z,99.90
2023-02-24T05:02:08.339Z,99.90
2023-02-24T05:04:38.903Z,99.90
2023-02-24T05:07:06.667Z,99.90
2023-02-24T05:09:34.254Z,99.90
2023-02-24T05:12:02.451Z,99.90
2023-02-24T05:14:31.123Z,99.90
2023-02-24T05:17:00.318Z,99.90
2023-02-24T05:19:49.128Z,99.90
2023-02-24T05:22:17.621Z,99.90
2023-02-24T05:24:47.860Z,99.90
2023-02-24T05:27:17.219Z,99.90
2023-02-24T05:29:44.883Z,99.90
2023-02-24T05:32:16.183Z,99.90
2023-02-24T05:34:43.917Z,99.90
2023-02-24T05:37:11.505Z,99.90
2023-02-24T05:39:39.106Z,99.90
2023-02-24T05:42:07.125Z,99.90
2023-02-24T05:44:35.644Z,99.90
2023-02-24T05:47:05.351Z,99.90
2023-02-24T05:49:38.822Z,99.90
2023-02-24T05:52:09.449Z,99.90
2023-02-24T05:54:45.279Z,99.90
2023-02-24T05:57:19.041Z,99.90
2023-02-24T05:59:49.368Z,99.90
2023-02-24T06:02:27.920Z,99.90
2023-02-24T06:04:55.912Z,99.90
2023-02-24T06:07:34.203Z,99.90
2023-02-24T06:10:04.812Z,99.90
2023-02-24T06:12:34.562Z,99.90
2023-02-24T06:15:07.529Z,99.90
2023-02-24T06:17:35.775Z,99.90
2023-02-24T06:20:15.645Z,99.90
2023-02-24T06:22:43.360Z,99.90
2023-02-24T06:25:14.225Z,99.90
2023-02-24T06:27:43.129Z,99.90
2023-02-24T06:30:11.598Z,99.90
2023-02-24T06:32:40.591Z,99.90
2023-02-24T06:35:09.180Z,99.90
2023-02-24T06:37:36.944Z,99.90
2023-02-24T06:40:17.728Z,99.90
2023-02-24T06:42:47.312Z,99.90
2023-02-24T06:45:16.163Z,99.90
2023-02-24T06:47:44.023Z,99.90
2023-02-24T06:50:12.408Z,99.90
2023-02-24T06:52:40.730Z,99.90
2023-02-24T06:55:25.152Z,99.90
2023-02-24T06:57:56.954Z,99.90
2023-02-24T07:00:36.843Z,99.90
2023-02-24T07:03:16.887Z,99.90
2023-02-24T07:05:50.493Z,99.90
2023-02-24T07:08:24.469Z,99.90
2023-02-24T07:10:57.953Z,99.90
2023-02-24T07:13:32.133Z,99.90
2023-02-24T07:16:06.699Z,99.90
2023-02-24T07:18:40.496Z,99.90
2023-02-24T07:21:11.530Z,99.90
2023-02-24T07:23:41.657Z,99.90
2023-02-24T07:26:27.985Z,99.90
2023-02-24T07:28:56.611Z,99.90
2023-02-24T07:31:26.097Z,99.90
2023-02-24T07:33:57.774Z,99.90
2023-02-24T07:36:29.814Z,99.90
2023-02-24T07:38:59.055Z,99.90
2023-02-24T07:41:26.765Z,99.90
2023-02-24T07:43:55.125Z,99.90
2023-02-24T07:46:25.110Z,99.90
2023-02-24T07:48:54.791Z,99.90
2023-02-24T07:51:25.046Z,99.90
2023-02-24T07:53:59.265Z,99.90
2023-02-24T07:56:29.146Z,99.90
2023-02-24T07:59:09.741Z,99.90
2023-02-24T08:01:45.407Z,99.90
2023-02-24T08:04:15.890Z,99.90
2023-02-24T08:06:46.143Z,99.90
2023-02-24T08:09:18.561Z,99.90
2023-02-24T08:11:54.155Z,99.90
2023-02-24T08:14:27.166Z,99.90
2023-02-24T08:16:59.956Z,99.90
2023-02-24T08:19:39.684Z,99.90
2023-02-24T08:22:19.985Z,99.90
2023-02-24T08:24:52.763Z,99.90
2023-02-24T08:27:25.727Z,99.90
2023-02-24T08:30:01.425Z,99.90
2023-02-24T08:32:43.762Z,99.90
2023-02-24T08:35:15.633Z,99.90
2023-02-24T08:37:53.020Z,99.90
2023-02-24T08:40:38.036Z,99.90
2023-02-24T08:43:16.200Z,99.90
2023-02-24T08:45:50.927Z,99.90
2023-02-24T08:48:32.418Z,99.90
2023-02-24T08:51:04.530Z,99.90
2023-02-24T08:53:40.293Z,99.90
2023-02-24T08:56:11.490Z,99.90
2023-02-24T08:58:56.916Z,99.90
2023-02-24T09:01:34.801Z,99.90
2023-02-24T09:04:06.449Z,99.90
2023-02-24T09:06:52.546Z,99.90
2023-02-24T09:09:23.905Z,99.90
2023-02-24T09:12:00.130Z,99.90
2023-02-24T09:14:36.358Z,99.90
2023-02-24T09:17:07.046Z,99.90
2023-02-24T09:19:52.425Z,99.90
2023-02-24T09:22:32.779Z,99.90
2023-02-24T09:25:21.769Z,99.90
2023-02-24T09:28:08.939Z,99.90
2023-02-24T09:30:51.956Z,99.90
2023-02-24T09:33:28.162Z,99.90
2023-02-24T09:36:09.812Z,99.90
2023-02-24T09:38:59.979Z,99.90
2023-02-24T09:41:34.052Z,99.90
2023-02-24T09:44:18.162Z,99.90
2023-02-24T09:47:37.260Z,99.90
2023-02-24T09:50:32.962Z,99.90
2023-02-24T09:53:17.308Z,99.90
2023-02-24T09:56:00.257Z,99.90
2023-02-24T09:58:43.767Z,99.90
2023-02-24T10:01:33.650Z,99.90
2023-02-24T10:04:36.456Z,99.90
2023-02-24T10:07:15.690Z,99.90
2023-02-24T10:10:19.384Z,99.90
2023-02-24T10:12:54.506Z,99.90
2023-02-24T10:15:48.662Z,99.90
2023-02-24T10:19:00.932Z,99.90
2023-02-24T10:21:49.463Z,99.90
2023-02-24T10:24:22.961Z,99.90
2023-02-24T10:27:08.318Z,99.90
2023-02-24T10:29:47.965Z,99.90
2023-02-24T10:32:33.825Z,99.90
2023-02-24T10:35:02.643Z,99.90
2023-02-24T10:37:30.364Z,99.90
2023-02-24T10:40:09.480Z,99.90
2023-02-24T10:42:47.833Z,99.90
2023-02-24T10:45:27.350Z,99.90
2023-02-24T10:47:57.739Z,99.90
2023-02-24T10:50:31.948Z,99.90
2023-02-24T10:53:28.582Z,99.90
2023-02-24T10:56:17.369Z,99.90
2023-02-24T10:58:53.790Z,99.90
2023-02-24T11:01:55.709Z,99.90
2023-02-24T11:04:53.893Z,99.90
2023-02-24T11:07:24.958Z,99.90
2023-02-24T11:10:13.522Z,99.90
2023-02-24T11:13:10.284Z,99.90
2023-02-24T11:16:02.843Z,99.90
2023-02-24T11:18:31.745Z,99.90
2023-02-24T11:21:02.615Z,99.90
2023-02-24T11:23:35.343Z,99.90
2023-02-24T11:26:16.590Z,99.90
2023-02-24T11:29:03.916Z,99.90
2023-02-24T11:31:43.957Z,99.90
2023-02-24T11:34:21.475Z,99.90
2023-02-24T11:37:14.558Z,94.90
2023-02-24T11:39:48.133Z,93.90
2023-02-24T11:42:22.997Z,91.30
2023-02-24T11:45:09.462Z,92.60
2023-02-24T11:47:45.587Z,95.50
2023-02-24T11:50:46.692Z,96.40
2023-02-24T11:53:20.077Z,98.00
2023-02-24T11:55:53.818Z,99.90
2023-02-24T11:58:28.040Z,99.90
2023-02-24T12:01:31.318Z,99.90
2023-02-24T12:04:11.009Z,98.90
2023-02-24T12:06:47.676Z,96.10
2023-02-24T12:09:24.850Z,95.10
2023-02-24T12:12:02.173Z,96.70
2023-02-24T12:14:42.963Z,95.70
2023-02-24T12:17:34.897Z,93.10
2023-02-24T12:20:27.813Z,93.60
2023-02-24T12:23:23.074Z,92.40
2023-02-24T12:26:09.116Z,91.90
2023-02-24T12:28:45.745Z,92.80
2023-02-24T12:31:53.324Z,93.70
2023-02-24T12:34:41.518Z,94.40
2023-02-24T12:37:40.278Z,92.70
2023-02-24T12:40:33.581Z,93.20
2023-02-24T13:04:45.539Z,94.70
2023-02-24T13:07:22.131Z,95.50
2023-02-24T13:10:12.680Z,95.90
2023-02-24T13:12:49.308Z,96.00
2023-02-24T13:15:23.344Z,96.00
2023-02-24T13:17:57.003Z,96.20
2023-02-24T13:20:33.206Z,96.10
2023-02-24T13:23:03.521Z,97.60
2023-02-24T13:25:39.690Z,98.90
2023-02-24T13:28:24.662Z,99.70
2023-02-24T13:31:05.000Z,99.90
2023-02-24T13:33:40.108Z,99.90
2023-02-24T13:36:21.400Z,99.90
2023-02-24T13:39:07.048Z,99.90
2023-02-24T13:41:41.845Z,99.90
2023-02-24T13:44:32.027Z,99.40
2023-02-24T13:47:11.722Z,97.80
2023-02-24T13:50:06.736Z,97.40
2023-02-24T13:52:42.281Z,96.70
2023-02-24T13:55:12.874Z,97.40
2023-02-24T13:57:58.455Z,97.60
2023-02-24T14:01:03.651Z,98.80
2023-02-24T14:03:32.142Z,99.90
2023-02-24T14:06:01.557Z,99.30
2023-02-24T14:08:47.387Z,98.50
2023-02-24T14:11:16.373Z,99.30
2023-02-24T14:13:51.005Z,99.20
2023-02-24T14:16:25.373Z,97.70
2023-02-24T14:18:54.526Z,99.30
2023-02-24T14:21:25.192Z,96.90
2023-02-24T14:23:56.661Z,97.20
2023-02-24T14:26:28.215Z,97.20
2023-02-24T14:29:00.695Z,97.90
2023-02-24T14:31:30.049Z,98.70
2023-02-24T14:34:01.622Z,98.20
2023-02-24T14:36:35.540Z,98.80
2023-02-24T14:39:17.691Z,98.80
2023-02-24T14:41:46.326Z,97.80
2023-02-24T14:44:28.071Z,97.70
2023-02-24T14:47:02.767Z,97.00
2023-02-24T14:49:35.297Z,97.40
2023-02-24T14:52:11.856Z,98.10
2023-02-24T14:54:54.221Z,97.20
2023-02-24T14:57:28.148Z,94.10
2023-02-24T15:00:02.387Z,93.10
2023-02-24T15:02:33.704Z,92.90
2023-02-24T15:05:01.486Z,92.50
2023-02-24T15:07:32.215Z,91.50
2023-02-24T15:10:03.773Z,92.30
2023-02-24T15:12:33.393Z,92.10
2023-02-24T15:15:34.887Z,91.60
2023-02-24T15:18:09.901Z,92.30
2023-02-24T15:20:40.638Z,91.70
2023-02-24T15:23:26.923Z,92.80
2023-02-24T15:25:54.541Z,93.90
2023-02-24T15:28:26.763Z,94.90
2023-02-24T15:31:09.774Z,95.90
2023-02-24T15:33:44.175Z,96.70
2023-02-24T15:36:18.664Z,97.40
2023-02-24T15:38:47.025Z,97.90
2023-02-24T15:41:17.281Z,99.10
2023-02-24T15:43:48.186Z,99.90
2023-02-24T15:46:21.167Z,99.90
2023-02-24T15:48:54.445Z,99.90
2023-02-24T15:51:41.045Z,99.90
2023-02-24T15:54:24.133Z,99.90
2023-02-24T15:56:52.009Z,99.90
2023-02-24T15:59:23.004Z,99.90
2023-02-24T16:01:52.185Z,99.90
2023-02-24T16:04:21.714Z,99.90
2023-02-24T16:06:56.509Z,99.90
2023-02-24T16:09:39.019Z,99.90
2023-02-24T16:12:32.352Z,99.90
2023-02-24T16:15:02.132Z,99.90
2023-02-24T16:17:34.189Z,99.90
2023-02-24T16:20:02.770Z,99.90
2023-02-24T16:22:30.930Z,99.90
2023-02-24T16:24:58.584Z,99.90
2023-02-24T16:27:29.453Z,99.90
2023-02-24T16:29:58.165Z,99.90
2023-02-24T16:32:28.864Z,99.90
2023-02-24T16:34:57.101Z,99.90
2023-02-24T16:37:29.002Z,99.90
2023-02-24T16:39:59.182Z,99.90
2023-02-24T16:42:26.757Z,99.90
2023-02-24T16:44:54.373Z,99.90
2023-02-24T16:47:24.130Z,99.90
2023-02-24T16:49:55.439Z,99.90
2023-02-24T16:52:24.754Z,99.90
2023-02-24T16:54:52.474Z,99.90
2023-02-24T16:57:25.314Z,99.90
2023-02-24T16:59:52.974Z,99.90
2023-02-24T17:02:24.680Z,99.90
2023-02-24T17:04:52.465Z,99.90
2023-02-24T17:07:21.326Z,99.90
2023-02-24T17:09:49.012Z,99.90
2023-02-24T17:12:21.840Z,99.90
2023-02-24T17:14:49.637Z,99.90
2023-02-24T17:17:20.651Z,99.90
2023-02-24T17:19:48.246Z,99.90
2023-02-24T17:22:18.679Z,99.90
2023-02-24T17:24:51.867Z,99.90
2023-02-24T17:27:19.460Z,99.90
2023-02-24T17:29:47.052Z,99.90
2023-02-24T17:32:14.963Z,99.90
2023-02-24T17:34:44.173Z,99.90
2023-02-24T17:37:11.724Z,99.90
2023-02-24T17:39:39.294Z,99.90
2023-02-24T17:42:07.069Z,99.90
2023-02-24T17:44:34.640Z,99.90
2023-02-24T17:47:02.224Z,99.90
2023-02-24T17:49:29.818Z,99.90
2023-02-24T17:51:57.400Z,99.90
2023-02-24T17:54:26.312Z,99.90
2023-02-24T17:56:54.155Z,99.90
2023-02-24T17:59:21.739Z,99.90
2023-02-24T18:01:49.730Z,99.90
2023-02-24T18:04:18.525Z,99.90
2023-02-24T18:06:47.064Z,99.90
2023-02-24T18:09:14.751Z,99.90
2023-02-24T18:11:45.716Z,99.90
2023-02-24T18:14:16.905Z,99.90
2023-02-24T18:16:44.586Z,99.90
2023-02-24T18:19:12.296Z,99.90
2023-02-24T18:21:39.945Z,99.90
2023-02-24T18:24:08.351Z,99.90
2023-02-24T18:26:36.406Z,99.90
2023-02-24T18:29:04.041Z,99.90
2023-02-24T18:31:33.258Z,99.90
2023-02-24T18:34:01.612Z,99.90
2023-02-24T18:36:29.236Z,99.90
2023-02-24T18:38:57.930Z,99.90
2023-02-24T18:41:26.424Z,99.90
2023-02-24T18:43:56.790Z,99.90
2023-02-24T18:46:25.651Z,99.90
2023-02-24T18:48:53.545Z,99.90
2023-02-24T18:51:22.597Z,99.90
2023-02-24T18:53:52.743Z,99.90
2023-02-24T18:56:26.498Z,99.90
2023-02-24T18:58:56.477Z,99.90
2023-02-24T19:01:41.277Z,99.90
2023-02-24T19:04:09.423Z,99.90
2023-02-24T19:06:37.070Z,99.90
2023-02-24T19:09:09.658Z,99.90
2023-02-24T19:11:39.451Z,99.90
2023-02-24T19:14:07.125Z,99.90
2023-02-24T19:16:36.279Z,99.90
2023-02-24T19:19:04.047Z,99.90
2023-02-24T19:21:33.214Z,99.90
2023-02-24T19:24:03.648Z,99.90
2023-02-24T19:26:31.534Z,99.90
2023-02-24T19:28:59.231Z,99.90
2023-02-24T19:31:32.144Z,99.90
2023-02-24T19:34:03.081Z,99.90
2023-02-24T19:36:32.168Z,99.90
2023-02-24T19:39:00.316Z,99.90
2023-02-24T19:41:28.171Z,99.90
2023-02-24T19:43:55.936Z,99.90
2023-02-24T19:46:24.066Z,99.90
2023-02-24T19:48:52.056Z,99.90
2023-02-24T19:51:22.615Z,99.90
2023-02-24T19:53:58.351Z,99.90
2023-02-24T19:56:30.457Z,99.90
2023-02-24T19:58:59.985Z,99.90
2023-02-24T20:01:28.826Z,99.90
2023-02-24T20:04:04.282Z,99.90
2023-02-24T20:06:35.711Z,99.90
2023-02-24T20:09:15.479Z,99.90
2023-02-24T20:11:45.076Z,99.90
2023-02-24T20:14:14.602Z,99.90
2023-02-24T20:16:43.468Z,99.90
2023-02-24T20:19:12.956Z,99.90
2023-02-24T20:21:44.280Z,99.90
2023-02-24T20:24:14.827Z,99.90
2023-02-24T20:26:46.997Z,99.90
2023-02-24T20:29:17.106Z,99.90
2023-02-24T20:31:46.412Z,99.90
2023-02-24T20:34:16.520Z,99.90
2023-02-24T20:36:44.326Z,99.90
2023-02-24T20:39:12.400Z,99.90
2023-02-24T20:41:40.846Z,99.90
2023-02-24T20:44:09.421Z,99.90
2023-02-24T20:46:37.971Z,99.90
2023-02-24T20:49:07.934Z,99.90
2023-02-24T20:51:39.691Z,99.90
2023-02-24T20:54:09.462Z,99.90
2023-02-24T20:56:41.732Z,99.90
2023-02-24T20:59:13.506Z,99.90
2023-02-24T21:01:42.152Z,99.90
2023-02-24T21:04:10.877Z,99.90
2023-02-24T21:06:38.589Z,99.90
2023-02-24T21:09:06.450Z,99.90
2023-02-24T21:11:34.504Z,99.90
2023-02-24T21:14:02.683Z,99.90
2023-02-24T21:16:30.246Z,99.90
2023-02-24T21:18:58.775Z,99.90
2023-02-24T21:21:27.205Z,99.90
2023-02-24T21:23:55.811Z,99.90
2023-02-24T21:26:29.111Z,99.90
2023-02-24T21:29:02.850Z,99.90
2023-02-24T21:31:30.661Z,99.90
2023-02-24T21:33:58.383Z,99.90
2023-02-24T21:36:27.655Z,99.90
2023-02-24T21:38:56.009Z,99.90
2023-02-24T21:41:24.102Z,99.90
2023-02-24T21:43:54.825Z,99.90
2023-02-24T21:46:27.942Z,99.90
2023-02-24T21:48:57.640Z,99.90
2023-02-24T21:51:30.111Z,99.90
2023-02-24T21:53:58.189Z,99.90
2023-02-24T21:56:28.484Z,99.90
2023-02-24T21:59:01.582Z,99.90
2023-02-24T22:01:34.175Z,99.90
2023-02-24T22:04:05.953Z,99.90
2023-02-24T22:06:35.321Z,99.90
2023-02-24T22:09:06.808Z,99.90
2023-02-24T22:11:36.458Z,99.90
2023-02-24T22:14:10.238Z,99.90
2023-02-24T22:16:38.870Z,99.90
2023-02-24T22:19:06.755Z,99.90
2023-02-24T22:21:34.558Z,99.90
2023-02-24T22:24:03.387Z,99.90
2023-02-24T22:26:32.228Z,99.90
2023-02-24T22:29:00.886Z,99.90
2023-02-24T22:31:30.728Z,99.90
2023-02-24T22:33:58.801Z,99.90
2023-02-24T22:36:38.770Z,99.90
2023-02-24T22:39:08.815Z,99.90
2023-02-24T22:41:37.330Z,99.90
2023-02-24T22:44:05.798Z,99.90
2023-02-24T22:46:36.340Z,99.90
2023-02-24T22:49:07.128Z,99.90
2023-02-24T22:51:34.795Z,99.90
2023-02-24T22:54:03.183Z,99.90
2023-02-24T22:56:31.910Z,99.90
2023-02-24T22:59:00.680Z,99.90
2023-02-24T23:01:35.317Z,99.90
2023-02-24T23:04:07.685Z,99.90
2023-02-24T23:06:36.341Z,99.90
2023-02-24T23:09:05.435Z,99.90
2023-02-24T23:11:39.102Z,99.90
2023-02-24T23:14:10.208Z,99.90
2023-02-24T23:16:38.687Z,99.90
2023-02-24T23:19:13.114Z,99.90
2023-02-24T23:21:45.724Z,99.90
2023-02-24T23:24:14.762Z,99.90
2023-02-24T23:26:54.151Z,99.90
2023-02-24T23:29:23.115Z,99.90
2023-02-24T23:31:54.931Z,99.90
2023-02-24T23:34:25.725Z,99.90
2023-02-24T23:36:53.374Z,99.90
2023-02-24T23:39:23.656Z,99.90
2023-02-24T23:41:56.703Z,99.90
2023-02-24T23:44:26.820Z,99.90
2023-02-24T23:46:54.933Z,99.90
2023-02-24T23:49:23.107Z,99.90
2023-02-24T23:51:50.704Z,99.90
2023-02-24T23:54:19.164Z,99.90
2023-02-24T23:56:47.172Z,99.90
2023-02-24T23:59:15.353Z,99.90
